createdAt,value
2022-09-16T00:00:56.213Z,100.00
2022-09-16T00:05:57.955Z,100.00
2022-09-16T00:11:00.544Z,100.00
2022-09-16T00:16:02.406Z,100.00
2022-09-16T00:21:09.746Z,100.00
2022-09-16T00:26:11.508Z,100.00
2022-09-16T00:31:13.183Z,100.00
2022-09-16T00:36:16.610Z,100.00
2022-09-16T00:41:20.659Z,100.00
2022-09-16T00:46:33.486Z,100.00
2022-09-16T00:51:35.273Z,100.00
2022-09-16T00:56:38.745Z,100.00
2022-09-16T01:01:42.470Z,100.00
2022-09-16T01:06:44.213Z,100.00
2022-09-16T01:11:45.839Z,100.00
2022-09-16T01:16:58.210Z,100.00
2022-09-16T01:22:21.188Z,100.00
2022-09-16T01:27:40.935Z,100.00
2022-09-16T01:33:04.967Z,100.00
2022-09-16T01:38:36.071Z,100.00
2022-09-16T01:43:43.164Z,100.00
2022-09-16T01:48:59.439Z,100.00
2022-09-16T01:54:31.743Z,100.00
2022-09-16T01:59:43.772Z,100.00
2022-09-16T02:04:55.821Z,100.00
2022-09-16T02:10:00.138Z,100.00
2022-09-16T02:15:04.947Z,100.00
2022-09-16T02:20:11.749Z,100.00
2022-09-16T02:25:14.085Z,100.00
2022-09-16T02:30:17.540Z,100.00
2022-09-16T02:35:19.661Z,100.00
2022-09-16T02:40:27.308Z,100.00
2022-09-16T02:46:09.972Z,100.00
2022-09-16T02:51:18.117Z,100.00
2022-09-16T02:56:48.907Z,100.00
2022-09-16T03:01:50.965Z,100.00
2022-09-16T03:06:52.634Z,100.00
2022-09-16T03:12:18.751Z,100.00
2022-09-16T03:17:39.021Z,100.00
2022-09-16T03:22:43.582Z,100.00
2022-09-16T03:28:02.191Z,100.00
2022-09-16T03:33:06.812Z,100.00
2022-09-16T03:38:08.465Z,100.00
2022-09-16T03:43:11.907Z,100.00
2022-09-16T03:48:13.545Z,100.00
2022-09-16T03:53:15.173Z,100.00
2022-09-16T03:58:16.810Z,100.00
2022-09-16T04:03:18.437Z,100.00
2022-09-16T04:08:20.208Z,100.00
2022-09-16T04:13:21.872Z,100.00
2022-09-16T04:18:23.597Z,100.00
2022-09-16T04:23:26.476Z,100.00
2022-09-16T04:28:28.343Z,100.00
2022-09-16T04:33:30.872Z,100.00
2022-09-16T04:38:32.576Z,100.00
2022-09-16T04:43:34.275Z,100.00
2022-09-16T04:48:35.884Z,100.00
2022-09-16T04:53:38.185Z,100.00
2022-09-16T04:58:39.794Z,100.00
2022-09-16T05:03:46.056Z,100.00
2022-09-16T05:08:48.621Z,100.00
2022-09-16T05:13:50.302Z,100.00
2022-09-16T05:18:58.073Z,100.00
2022-09-16T05:24:00.623Z,100.00
2022-09-16T05:29:07.009Z,100.00
2022-09-16T05:34:13.796Z,100.00
2022-09-16T05:39:23.238Z,100.00
2022-09-16T05:44:26.500Z,100.00
2022-09-16T05:49:28.177Z,100.00
2022-09-16T05:54:31.379Z,100.00
2022-09-16T05:59:33.025Z,100.00
2022-09-16T06:04:34.653Z,100.00
2022-09-16T06:09:36.801Z,100.00
2022-09-16T06:14:38.420Z,100.00
2022-09-16T06:19:40.117Z,100.00
2022-09-16T06:24:41.727Z,100.00
2022-09-16T06:29:43.380Z,100.00
2022-09-16T06:34:44.994Z,100.00
2022-09-16T06:39:46.696Z,100.00
2022-09-16T06:44:48.381Z,100.00
2022-09-16T06:49:50.036Z,100.00
2022-09-16T06:54:51.695Z,100.00
2022-09-16T06:59:53.358Z,100.00
2022-09-16T07:04:55.092Z,100.00
2022-09-16T07:09:57.090Z,100.00
2022-09-16T07:14:58.709Z,100.00
2022-09-16T07:20:00.475Z,98.82
2022-09-16T07:25:02.086Z,97.49
2022-09-16T07:30:08.817Z,96.50
2022-09-16T07:35:10.974Z,94.35
2022-09-16T07:40:13.555Z,94.22
2022-09-16T07:45:15.329Z,92.00
2022-09-16T07:50:17.149Z,91.63
2022-09-16T07:55:18.966Z,91.03
2022-09-16T08:00:21.383Z,90.63
2022-09-16T08:05:23.003Z,89.80
2022-09-16T08:10:25.771Z,88.17
2022-09-16T08:15:28.888Z,88.29
2022-09-16T08:20:30.781Z,88.49
2022-09-16T08:25:33.185Z,88.11
2022-09-16T08:30:34.822Z,86.54
2022-09-16T08:35:36.593Z,84.35
2022-09-16T08:40:38.404Z,84.23
2022-09-16T08:45:55.327Z,81.77
2022-09-16T08:50:57.315Z,80.35
2022-09-16T08:55:58.922Z,77.68
2022-09-16T09:01:06.709Z,76.44
2022-09-16T09:06:33.045Z,77.78
2022-09-16T09:11:57.703Z,76.33
2022-09-16T09:17:08.922Z,75.78
2022-09-16T09:22:25.726Z,73.36
2022-09-16T09:27:31.200Z,73.12
2022-09-16T09:32:51.755Z,73.36
2022-09-16T09:38:21.976Z,70.69
2022-09-16T09:43:28.546Z,69.79
2022-09-16T09:48:37.326Z,70.53
2022-09-16T09:53:47.365Z,70.74
2022-09-16T09:58:54.299Z,69.04
2022-09-16T10:03:57.326Z,68.42
2022-09-16T10:08:58.999Z,67.89
2022-09-16T10:14:01.368Z,66.02
2022-09-16T10:19:19.656Z,66.56
2022-09-16T10:24:31.917Z,67.27
2022-09-16T10:29:33.569Z,66.43
2022-09-16T10:34:38.374Z,65.01
2022-09-16T10:39:44.970Z,62.84
2022-09-16T10:44:48.227Z,63.26
2022-09-16T10:49:52.206Z,62.66
2022-09-16T10:54:54.262Z,63.60
2022-09-16T10:59:57.657Z,62.03
2022-09-16T11:05:01.984Z,62.23
2022-09-16T11:10:17.590Z,61.64
2022-09-16T11:15:58.194Z,60.57
2022-09-16T11:21:36.322Z,59.15
2022-09-16T11:26:59.928Z,57.04
2022-09-16T11:32:30.252Z,54.53
2022-09-16T11:37:37.682Z,54.03
2022-09-16T11:42:45.660Z,55.39
2022-09-16T11:48:15.386Z,55.80
2022-09-16T11:53:32.669Z,56.16
2022-09-16T11:58:45.537Z,55.58
2022-09-16T12:03:59.281Z,55.63
2022-09-16T12:09:09.004Z,52.58
2022-09-16T12:14:18.248Z,51.07
2022-09-16T12:19:46.288Z,49.92
2022-09-16T12:25:16.115Z,49.60
2022-09-16T12:30:23.693Z,47.53
2022-09-16T12:36:00.037Z,48.30
2022-09-16T12:41:11.597Z,48.26
2022-09-16T12:46:34.877Z,50.18
2022-09-16T12:51:59.718Z,50.75
2022-09-16T12:57:27.239Z,49.33
2022-09-16T13:02:33.159Z,48.76
2022-09-16T13:07:35.238Z,44.46
2022-09-16T13:12:43.168Z,45.46
2022-09-16T13:17:48.512Z,49.74
2022-09-16T13:22:59.066Z,55.31
2022-09-16T13:28:02.231Z,56.60
2022-09-16T13:33:28.101Z,58.90
2022-09-16T13:38:38.701Z,59.30
2022-09-16T13:43:43.252Z,57.33
2022-09-16T13:48:47.643Z,56.49
2022-09-16T13:53:51.359Z,55.05
2022-09-16T13:59:34.436Z,51.62
2022-09-16T14:04:42.223Z,51.34
2022-09-16T14:09:55.196Z,48.79
2022-09-16T14:14:58.694Z,48.58
2022-09-16T14:20:00.556Z,47.54
2022-09-16T14:25:12.649Z,45.66
2022-09-16T14:30:20.826Z,45.69
2022-09-16T14:35:24.443Z,46.48
2022-09-16T14:40:26.329Z,48.50
2022-09-16T14:45:29.161Z,49.01
2022-09-16T14:50:32.444Z,49.49
2022-09-16T14:55:36.280Z,50.49
2022-09-16T15:01:08.938Z,51.33
2022-09-16T15:06:16.872Z,51.65
2022-09-16T15:11:46.046Z,51.10
2022-09-16T15:16:45.930Z,53.16
2022-09-16T15:21:47.536Z,54.44
2022-09-16T15:26:49.232Z,54.06
2022-09-16T15:31:50.932Z,54.34
2022-09-16T15:36:56.710Z,55.90
2022-09-16T15:42:17.319Z,56.41
2022-09-16T15:47:22.014Z,58.42
2022-09-16T15:52:23.641Z,58.70
2022-09-16T15:57:37.000Z,59.88
2022-09-16T16:02:43.907Z,60.41
2022-09-16T16:07:52.964Z,61.37
2022-09-16T16:12:54.704Z,62.27
2022-09-16T16:17:58.488Z,63.56
2022-09-16T16:23:00.792Z,65.82
2022-09-16T16:28:02.444Z,68.05
2022-09-16T16:33:07.139Z,69.06
2022-09-16T16:38:08.784Z,71.33
2022-09-16T16:43:10.500Z,72.90
2022-09-16T16:48:12.130Z,74.79
2022-09-16T16:53:13.752Z,74.80
2022-09-16T16:58:15.351Z,76.49
2022-09-16T17:03:16.990Z,80.72
2022-09-16T17:08:18.597Z,82.18
2022-09-16T17:13:20.282Z,83.62
2022-09-16T17:18:21.905Z,85.67
2022-09-16T17:23:23.512Z,89.71
2022-09-16T17:28:25.131Z,94.53
2022-09-16T17:33:27.089Z,95.09
2022-09-16T17:38:28.714Z,97.12
2022-09-16T17:43:32.640Z,98.34
2022-09-16T17:48:36.379Z,100.00
2022-09-16T17:53:38.100Z,100.00
2022-09-16T17:58:41.148Z,100.00
2022-09-16T18:03:43.879Z,100.00
2022-09-16T18:08:45.556Z,100.00
2022-09-16T18:13:47.409Z,100.00
2022-09-16T18:18:56.246Z,99.37
2022-09-16T18:23:59.437Z,97.10
2022-09-16T18:29:10.395Z,97.51
2022-09-16T18:34:12.439Z,96.86
2022-09-16T18:39:14.850Z,96.08
2022-09-16T18:44:20.907Z,94.78
2022-09-16T18:49:23.991Z,94.56
2022-09-16T18:54:29.969Z,93.91
2022-09-16T18:59:32.474Z,92.88
2022-09-16T19:04:38.056Z,93.39
2022-09-16T19:09:40.141Z,93.13
2022-09-16T19:14:41.797Z,93.36
2022-09-16T19:19:43.473Z,93.38
2022-09-16T19:24:45.119Z,93.70
2022-09-16T19:29:46.738Z,93.59
2022-09-16T19:34:48.387Z,93.53
2022-09-16T19:39:50.199Z,93.29
2022-09-16T19:44:51.894Z,93.90
2022-09-16T19:49:53.571Z,95.08
2022-09-16T19:54:55.245Z,95.65
2022-09-16T19:59:56.870Z,95.94
2022-09-16T20:04:58.790Z,97.16
2022-09-16T20:10:00.407Z,98.01
2022-09-16T20:15:02.160Z,98.05
2022-09-16T20:20:06.060Z,99.84
2022-09-16T20:25:22.342Z,100.00
2022-09-16T20:30:24.846Z,100.00
2022-09-16T20:35:26.431Z,100.00
2022-09-16T20:40:28.095Z,100.00
2022-09-16T20:45:29.821Z,100.00
2022-09-16T20:50:31.483Z,100.00
2022-09-16T20:55:33.141Z,100.00
2022-09-16T21:00:34.797Z,100.00
2022-09-16T21:05:36.405Z,100.00
2022-09-16T21:10:38.577Z,100.00
2022-09-16T21:15:40.183Z,100.00
2022-09-16T21:20:41.811Z,100.00
2022-09-16T21:25:44.100Z,100.00
2022-09-16T21:30:45.765Z,100.00
2022-09-16T21:35:51.573Z,100.00
2022-09-16T21:40:54.999Z,100.00
2022-09-16T21:45:57.750Z,100.00
2022-09-16T21:51:07.143Z,100.00
2022-09-16T21:56:10.524Z,100.00
2022-09-16T22:01:14.743Z,100.00
2022-09-16T22:06:18.418Z,100.00
2022-09-16T22:11:20.985Z,100.00
2022-09-16T22:16:27.325Z,100.00
2022-09-16T22:21:32.016Z,100.00
2022-09-16T22:26:34.701Z,100.00
2022-09-16T22:31:37.508Z,100.00
2022-09-16T22:36:39.300Z,100.00
2022-09-16T22:41:40.929Z,100.00
2022-09-16T22:46:43.987Z,100.00
2022-09-16T22:51:46.012Z,100.00
2022-09-16T22:56:47.620Z,100.00
2022-09-16T23:01:49.477Z,100.00
2022-09-16T23:06:51.671Z,100.00
2022-09-16T23:11:53.294Z,100.00
2022-09-16T23:16:55.068Z,100.00
2022-09-16T23:21:56.694Z,100.00
2022-09-16T23:26:58.309Z,100.00
2022-09-16T23:32:02.588Z,100.00
2022-09-16T23:37:04.214Z,100.00
2022-09-16T23:42:05.955Z,100.00
2022-09-16T23:47:07.578Z,100.00
2022-09-16T23:52:09.238Z,100.00
2022-09-16T23:57:10.845Z,100.00
